Time;durP1;ratioP1;P1;durP2;ratioP2;P2;SDS_P1;SDS_P2;PMS_P1;PMS_P2;Temp;Humidity;BMP_temperature;BMP_pressure;BME280_temperature;BME280_humidity;BME280_pressure;Samples;Min_cycle;Max_cycle;Signal;HPM_P1;HPM_P2
2022/01/14 00:00:05;;;;;;;44.97;24.17;;;0.10;99.90;;;;;;5016111;28;20022;-77
2022/01/14 00:02:31;;;;;;;41.63;24.83;;;0.10;99.90;;;;;;5017904;28;20018;-77
2022/01/14 00:04:57;;;;;;;36.28;22.63;;;0.10;99.90;;;;;;5017795;28;20489;-77
2022/01/14 00:07:24;;;;;;;32.95;23.05;;;0.10;99.90;;;;;;5017460;28;20018;-77
2022/01/14 00:09:50;;;;;;;44.10;23.73;;;0.10;99.90;;;;;;5018830;28;20028;-77
2022/01/14 00:12:22;;;;;;;32.33;22.25;;;0.10;99.90;;;;;;5017748;28;20026;-76
2022/01/14 00:14:59;;;;;;;35.72;23.40;;;0.10;99.90;;;;;;5014615;28;20026;-77
2022/01/14 00:17:25;;;;;;;42.63;24.52;;;0.00;99.90;;;;;;5015647;28;20403;-78
2022/01/14 00:19:50;;;;;;;34.55;22.38;;;0.00;99.90;;;;;;5017341;28;20026;-77
2022/01/14 00:22:17;;;;;;;33.33;21.90;;;0.00;99.90;;;;;;5015901;28;20072;-77
2022/01/14 00:33:08;;;;;;;34.78;22.73;;;0.20;99.90;;;;;;5036289;28;20061;-76
2022/01/14 00:35:36;;;;;;;32.50;21.25;;;0.30;99.90;;;;;;5037397;28;20030;-76
2022/01/14 00:38:02;;;;;;;34.30;21.90;;;0.30;99.90;;;;;;5035302;28;20036;-76
2022/01/14 00:40:27;;;;;;;34.88;22.40;;;0.20;99.90;;;;;;5017936;28;20037;-77
2022/01/14 00:42:53;;;;;;;38.15;23.85;;;0.20;99.90;;;;;;5015077;28;20026;-76
2022/01/14 00:45:19;;;;;;;42.92;25.50;;;0.20;99.90;;;;;;5016074;28;20030;-78
2022/01/14 00:47:45;;;;;;;40.17;25.17;;;0.10;99.90;;;;;;5017628;28;20137;-78
2022/01/14 00:50:13;;;;;;;42.10;26.90;;;0.10;99.90;;;;;;5017875;28;20113;-78
2022/01/14 00:52:41;;;;;;;44.70;27.17;;;0.00;99.90;;;;;;5021793;28;20030;-78
2022/01/14 00:55:08;;;;;;;40.17;26.10;;;0.00;99.90;;;;;;5015667;28;20121;-77
2022/01/14 01:00:23;;;;;;;33.17;21.83;;;-0.10;99.90;;;;;;5014462;28;20059;-77
2022/01/14 01:02:49;;;;;;;35.05;23.23;;;0.00;99.90;;;;;;4981320;28;20099;-77
2022/01/14 01:05:15;;;;;;;36.55;22.20;;;0.30;99.90;;;;;;5013520;28;20490;-77
2022/01/14 01:07:43;;;;;;;36.65;22.85;;;0.30;99.90;;;;;;5022300;28;20020;-77
2022/01/14 01:10:10;;;;;;;33.45;22.95;;;0.30;99.90;;;;;;5024004;28;20034;-78
2022/01/14 01:12:48;;;;;;;35.13;25.13;;;0.30;99.90;;;;;;5014790;28;20041;-78
2022/01/14 01:15:16;;;;;;;37.25;24.40;;;0.30;99.90;;;;;;5017592;28;20026;-77
2022/01/14 01:17:42;;;;;;;37.17;25.20;;;0.30;99.90;;;;;;5025012;28;20389;-77
2022/01/14 01:20:14;;;;;;;36.85;24.52;;;0.30;99.90;;;;;;5014501;28;20168;-76
2022/01/14 01:22:40;;;;;;;38.60;24.95;;;0.20;99.90;;;;;;5017959;28;20018;-77
2022/01/14 01:25:09;;;;;;;39.80;26.30;;;0.10;99.90;;;;;;5028610;28;20057;-78
2022/01/14 01:27:40;;;;;;;38.92;26.80;;;0.10;99.90;;;;;;5017766;28;20497;-77
2022/01/14 01:30:14;;;;;;;41.92;26.88;;;0.00;99.90;;;;;;5017499;28;20097;-77
2022/01/14 01:32:44;;;;;;;41.08;27.98;;;0.00;99.90;;;;;;5016634;28;20018;-77
2022/01/14 01:35:10;;;;;;;45.53;26.47;;;0.00;99.90;;;;;;5017965;28;20133;-77
2022/01/14 01:37:35;;;;;;;42.85;27.17;;;0.10;99.90;;;;;;5017641;28;20053;-77
2022/01/14 01:40:01;;;;;;;47.22;27.75;;;0.10;99.90;;;;;;5015975;28;20033;-77
2022/01/14 01:42:29;;;;;;;39.95;27.55;;;0.30;99.90;;;;;;5015906;28;20069;-77
2022/01/14 01:44:55;;;;;;;42.30;27.20;;;0.10;99.90;;;;;;5015958;28;20026;-78
2022/01/14 01:47:22;;;;;;;42.15;28.60;;;0.00;99.90;;;;;;5015596;28;20375;-77
2022/01/14 01:49:48;;;;;;;41.50;26.02;;;-0.10;99.90;;;;;;5017062;28;20018;-77
2022/01/14 01:52:14;;;;;;;41.75;27.67;;;-0.10;99.90;;;;;;5016757;28;20026;-77
2022/01/14 01:54:40;;;;;;;43.28;28.85;;;-0.10;99.90;;;;;;5016786;28;20112;-77
2022/01/14 01:57:07;;;;;;;44.10;27.60;;;-0.10;99.90;;;;;;5015778;28;20048;-77
2022/01/14 01:59:33;;;;;;;37.72;26.02;;;-0.10;99.90;;;;;;5017214;28;20443;-77
2022/01/14 02:02:00;;;;;;;47.88;29.33;;;-0.20;99.90;;;;;;5017227;28;20398;-77
2022/01/14 02:04:27;;;;;;;38.80;27.45;;;-0.20;99.90;;;;;;5017337;28;20366;-77
2022/01/14 02:06:54;;;;;;;42.50;28.50;;;-0.20;99.90;;;;;;5020977;28;20117;-77
2022/01/14 02:09:20;;;;;;;43.25;27.85;;;-0.30;99.90;;;;;;5016126;28;20062;-78
2022/01/14 02:11:46;;;;;;;45.47;29.73;;;-0.30;99.90;;;;;;5015814;28;20030;-77
2022/01/14 02:14:28;;;;;;;46.30;28.40;;;-0.40;99.90;;;;;;5015587;28;20022;-77
2022/01/14 02:17:16;;;;;;;44.88;30.58;;;-0.30;99.90;;;;;;5028737;28;20106;-76
2022/01/14 02:22:55;;;;;;;44.28;28.83;;;-0.20;99.90;;;;;;5017326;28;20029;-77
2022/01/14 02:25:29;;;;;;;40.05;27.15;;;-0.10;99.90;;;;;;5016454;28;20048;-77
2022/01/14 02:27:56;;;;;;;40.13;26.48;;;-0.10;99.90;;;;;;5017594;28;20092;-77
2022/01/14 02:30:23;;;;;;;39.88;27.08;;;-0.10;99.90;;;;;;5016868;28;20014;-78
2022/01/14 02:32:49;;;;;;;36.75;24.67;;;-0.10;99.90;;;;;;5016366;28;20018;-77
2022/01/14 02:35:15;;;;;;;37.70;27.23;;;-0.20;99.90;;;;;;5016008;28;20397;-77
2022/01/14 02:37:41;;;;;;;43.15;26.85;;;0.00;99.90;;;;;;5015842;28;20393;-78
2022/01/14 02:40:07;;;;;;;35.70;26.40;;;-0.10;99.90;;;;;;5014848;28;20526;-77
2022/01/14 02:42:32;;;;;;;42.20;26.58;;;-0.10;99.90;;;;;;5015724;28;20061;-77
2022/01/14 02:45:03;;;;;;;38.20;26.38;;;-0.30;99.90;;;;;;5016149;28;20092;-76
2022/01/14 02:47:28;;;;;;;39.15;26.40;;;-0.30;99.90;;;;;;5015981;28;20030;-77
2022/01/14 02:49:54;;;;;;;43.67;28.48;;;-0.30;99.90;;;;;;5018658;28;20072;-76
2022/01/14 02:52:29;;;;;;;39.28;27.73;;;-0.40;99.90;;;;;;5021364;28;20052;-76
2022/01/14 02:55:14;;;;;;;43.47;28.63;;;-0.40;99.90;;;;;;5019245;28;20482;-78
2022/01/14 02:57:43;;;;;;;38.95;26.70;;;-0.40;99.90;;;;;;5018151;28;20018;-76
2022/01/14 03:00:09;;;;;;;39.42;27.00;;;-0.30;99.90;;;;;;5015081;28;20025;-77
2022/01/14 03:02:36;;;;;;;39.35;27.05;;;-0.30;99.90;;;;;;5017673;28;20108;-77
2022/01/14 03:05:03;;;;;;;43.67;27.70;;;-0.30;99.90;;;;;;5016755;28;20025;-77
2022/01/14 03:07:28;;;;;;;42.55;29.23;;;-0.30;99.90;;;;;;5016596;28;20030;-76
2022/01/14 03:09:54;;;;;;;42.83;27.30;;;-0.30;99.90;;;;;;5017668;28;20037;-77
2022/01/14 03:12:20;;;;;;;44.13;28.65;;;-0.30;99.90;;;;;;5017817;28;20156;-77
2022/01/14 03:14:46;;;;;;;42.10;27.67;;;-0.30;99.90;;;;;;5023619;28;20061;-77
2022/01/14 03:17:12;;;;;;;47.60;28.20;;;-0.30;99.90;;;;;;5021844;28;20076;-77
2022/01/14 03:19:37;;;;;;;37.63;26.40;;;-0.40;99.90;;;;;;5018327;28;20069;-77
2022/01/14 03:22:07;;;;;;;38.67;26.38;;;-0.40;99.90;;;;;;5018610;28;20022;-77
2022/01/14 03:27:02;;;;;;;35.75;24.42;;;-0.40;99.90;;;;;;5018307;28;20033;-78
2022/01/14 03:29:28;;;;;;;39.40;25.30;;;-0.40;99.90;;;;;;5017276;28;20026;-77
2022/01/14 03:31:53;;;;;;;40.28;26.70;;;-0.50;99.90;;;;;;5015278;28;20087;-77
2022/01/14 03:34:19;;;;;;;33.78;23.58;;;-0.50;99.90;;;;;;5015334;28;20029;-77
2022/01/14 03:36:45;;;;;;;36.33;24.95;;;-0.50;99.90;;;;;;5015894;28;20445;-77
2022/01/14 03:39:11;;;;;;;31.98;22.80;;;-0.30;99.90;;;;;;5015204;28;20117;-76
2022/01/14 03:41:37;;;;;;;38.83;26.85;;;-0.30;99.90;;;;;;5013670;28;20057;-77
2022/01/14 03:44:03;;;;;;;33.15;23.70;;;-0.30;99.90;;;;;;5015162;28;20113;-76
2022/01/14 03:46:28;;;;;;;39.50;25.20;;;-0.20;99.90;;;;;;5016104;28;20500;-77
2022/01/14 03:48:54;;;;;;;35.88;23.88;;;-0.30;99.90;;;;;;5018886;28;20097;-77
2022/01/14 03:51:22;;;;;;;38.80;24.27;;;-0.20;99.90;;;;;;5017110;28;20470;-77
2022/01/14 03:53:48;;;;;;;34.85;24.48;;;-0.10;99.90;;;;;;5018946;28;20041;-78
2022/01/14 03:56:14;;;;;;;32.08;21.85;;;-0.10;99.90;;;;;;5021429;28;20444;-76
2022/01/14 03:58:40;;;;;;;36.90;24.90;;;-0.20;99.90;;;;;;5017356;28;20026;-76
2022/01/14 04:01:07;;;;;;;35.40;24.58;;;-0.30;99.90;;;;;;5015269;28;20060;-77
2022/01/14 04:03:33;;;;;;;36.63;25.25;;;-0.40;99.90;;;;;;5018735;28;20478;-76
2022/01/14 04:05:59;;;;;;;37.17;24.13;;;-0.40;99.90;;;;;;5037066;28;20045;-76
2022/01/14 04:08:24;;;;;;;33.17;22.88;;;-0.50;99.90;;;;;;5037388;28;20041;-76
2022/01/14 04:10:53;;;;;;;35.38;24.42;;;-0.50;99.90;;;;;;5020406;28;20032;-76
2022/01/14 04:13:23;;;;;;;32.45;22.63;;;-0.40;99.90;;;;;;5015268;28;20029;-77
2022/01/14 04:15:49;;;;;;;35.53;22.20;;;-0.40;99.90;;;;;;5012802;28;20121;-77
2022/01/14 04:18:20;;;;;;;38.58;24.00;;;-0.30;99.90;;;;;;5013741;28;20037;-77
2022/01/14 04:20:47;;;;;;;36.22;24.45;;;-0.40;99.90;;;;;;5013922;28;20112;-77
2022/01/14 04:23:14;;;;;;;36.88;24.17;;;-0.40;99.90;;;;;;5013698;28;20128;-78
2022/01/14 04:25:41;;;;;;;39.75;24.55;;;-0.50;99.90;;;;;;5013173;28;20481;-77
2022/01/14 04:28:08;;;;;;;35.97;24.38;;;-0.50;99.90;;;;;;5014297;28;20033;-77
2022/01/14 04:30:35;;;;;;;35.70;23.98;;;-0.50;99.90;;;;;;5014213;28;20033;-77
2022/01/14 04:33:02;;;;;;;36.85;25.40;;;-0.60;99.90;;;;;;5014261;28;20481;-76
2022/01/14 04:35:29;;;;;;;32.60;24.65;;;-0.60;99.90;;;;;;5014076;28;20481;-77
2022/01/14 04:37:55;;;;;;;38.33;24.70;;;-0.60;99.90;;;;;;5013607;28;20057;-77
2022/01/14 04:40:21;;;;;;;33.88;23.30;;;-0.60;99.90;;;;;;5013864;28;20537;-77
2022/01/14 04:42:47;;;;;;;33.45;23.48;;;-0.50;99.90;;;;;;5013887;28;20398;-77
2022/01/14 04:45:28;;;;;;;39.40;23.13;;;-0.30;99.90;;;;;;5012677;28;20022;-77
2022/01/14 04:47:55;;;;;;;38.70;23.73;;;-0.20;99.90;;;;;;5013843;28;20025;-77
2022/01/14 04:50:22;;;;;;;33.53;23.52;;;-0.20;99.90;;;;;;5013390;28;20030;-77
2022/01/14 04:52:48;;;;;;;32.78;22.77;;;-0.30;99.90;;;;;;5014004;28;20370;-77
2022/01/14 04:55:17;;;;;;;35.88;23.33;;;-0.30;99.90;;;;;;5012595;28;20033;-77
2022/01/14 04:57:44;;;;;;;30.10;21.52;;;-0.30;99.90;;;;;;5013712;28;20026;-77
2022/01/14 05:00:15;;;;;;;37.08;23.58;;;-0.30;99.90;;;;;;5019663;28;20061;-77
2022/01/14 05:02:40;;;;;;;35.40;23.90;;;-0.40;99.90;;;;;;5021045;28;20032;-77
2022/01/14 05:05:08;;;;;;;39.22;23.90;;;-0.50;99.90;;;;;;5020145;28;20093;-77
2022/01/14 05:07:34;;;;;;;32.75;23.52;;;-0.60;99.90;;;;;;5020077;28;20072;-77
2022/01/14 05:12:29;;;;;;;35.30;24.00;;;-0.60;99.90;;;;;;5021469;28;20022;-76
2022/01/14 05:14:55;;;;;;;39.63;24.73;;;-0.60;99.90;;;;;;5016797;28;20033;-77
2022/01/14 05:17:20;;;;;;;34.03;23.42;;;-0.60;99.90;;;;;;5015494;28;20029;-76
2022/01/14 05:19:46;;;;;;;35.30;24.05;;;-0.60;99.90;;;;;;5019684;28;20026;-77
2022/01/14 05:22:12;;;;;;;36.63;23.63;;;-0.60;99.90;;;;;;5018062;28;20026;-76
2022/01/14 05:24:39;;;;;;;34.42;23.70;;;-0.60;99.90;;;;;;5018655;28;20022;-77
2022/01/14 05:27:05;;;;;;;36.28;24.23;;;-0.70;99.90;;;;;;5019265;28;20041;-76
2022/01/14 05:29:31;;;;;;;34.08;22.20;;;-0.60;99.90;;;;;;5019394;28;20022;-77
2022/01/14 05:32:02;;;;;;;35.75;24.23;;;-0.70;99.90;;;;;;5019014;28;20022;-77
2022/01/14 05:34:29;;;;;;;32.35;22.83;;;-0.70;99.90;;;;;;5013360;28;20025;-77
2022/01/14 05:36:55;;;;;;;37.40;23.33;;;-0.70;99.90;;;;;;5013380;28;20108;-77
2022/01/14 05:39:20;;;;;;;32.22;22.98;;;-0.60;99.90;;;;;;5014354;28;20034;-77
2022/01/14 05:41:47;;;;;;;34.10;22.02;;;-0.70;99.90;;;;;;5015214;28;20033;-77
2022/01/14 05:44:12;;;;;;;43.70;23.08;;;-0.70;99.90;;;;;;5015445;28;20101;-77
2022/01/14 05:46:38;;;;;;;34.95;23.35;;;-0.70;99.90;;;;;;5014078;28;20150;-76
2022/01/14 05:49:04;;;;;;;31.05;21.83;;;-0.70;99.90;;;;;;5013130;28;20418;-77
2022/01/14 05:51:30;;;;;;;34.92;22.67;;;-0.70;99.90;;;;;;5013107;28;20034;-78
2022/01/14 05:53:55;;;;;;;36.15;23.48;;;-0.70;99.90;;;;;;5016523;28;20022;-76
2022/01/14 05:56:21;;;;;;;32.78;22.27;;;-0.70;99.90;;;;;;5013422;28;20441;-77
2022/01/14 05:58:47;;;;;;;29.85;21.73;;;-0.70;99.90;;;;;;5018159;28;20090;-77
2022/01/14 06:01:12;;;;;;;33.47;22.55;;;-0.70;99.90;;;;;;5025205;28;20037;-77
2022/01/14 06:03:38;;;;;;;32.67;22.65;;;-0.70;99.90;;;;;;5012588;28;20026;-77
2022/01/14 06:06:04;;;;;;;31.48;22.00;;;-0.70;99.90;;;;;;5015100;28;20026;-77
2022/01/14 06:08:29;;;;;;;32.78;22.98;;;-0.70;99.90;;;;;;5014955;28;20501;-76
2022/01/14 06:10:55;;;;;;;35.90;22.90;;;-0.70;99.90;;;;;;5014160;28;20037;-77
2022/01/14 06:13:20;;;;;;;33.78;22.85;;;-0.80;99.90;;;;;;5012097;28;20029;-77
2022/01/14 06:15:46;;;;;;;33.53;23.45;;;-0.80;99.90;;;;;;5020653;28;20033;-77
2022/01/14 06:18:11;;;;;;;35.53;22.92;;;-0.70;99.90;;;;;;5024135;28;20037;-77
2022/01/14 06:20:37;;;;;;;34.58;23.13;;;-0.70;99.90;;;;;;5035933;28;20037;-76
2022/01/14 06:23:02;;;;;;;35.15;23.60;;;-0.70;99.90;;;;;;5023888;28;20025;-76
2022/01/14 06:25:28;;;;;;;36.40;25.00;;;-0.70;99.90;;;;;;5021249;28;20049;-78
2022/01/14 06:27:54;;;;;;;38.97;24.35;;;-0.70;99.90;;;;;;5020709;28;20045;-77
2022/01/14 06:30:19;;;;;;;31.88;21.70;;;-0.80;99.90;;;;;;5019655;28;20022;-77
2022/01/14 06:32:45;;;;;;;35.55;23.15;;;-0.80;99.90;;;;;;5020548;28;20025;-77
2022/01/14 06:35:12;;;;;;;32.25;21.70;;;-0.80;99.90;;;;;;5018843;28;20026;-78
2022/01/14 06:37:39;;;;;;;31.65;22.13;;;-0.70;99.90;;;;;;5021284;28;20022;-77
2022/01/14 06:40:06;;;;;;;30.73;22.60;;;-0.70;99.90;;;;;;5021297;28;20033;-77
2022/01/14 06:42:32;;;;;;;35.47;23.40;;;-0.60;99.90;;;;;;5020315;28;20044;-77
2022/01/14 06:44:58;;;;;;;31.77;21.65;;;-0.70;99.90;;;;;;5019837;28;20029;-77
2022/01/14 06:47:25;;;;;;;32.58;23.02;;;-0.60;99.90;;;;;;5021413;28;20026;-76
2022/01/14 06:49:51;;;;;;;35.00;22.35;;;-0.70;99.90;;;;;;5021357;28;20006;-77
2022/01/14 06:52:18;;;;;;;34.45;23.27;;;-0.70;99.90;;;;;;5018948;28;20026;-77
2022/01/14 06:54:44;;;;;;;32.15;20.10;;;-0.70;99.90;;;;;;5020252;28;20026;-76
2022/01/14 06:57:09;;;;;;;34.38;22.25;;;-0.50;99.90;;;;;;5021572;28;20080;-77
2022/01/14 06:59:35;;;;;;;32.80;22.05;;;-0.50;99.90;;;;;;5019524;28;20034;-77
2022/01/14 07:02:01;;;;;;;38.10;21.67;;;-0.40;99.90;;;;;;5036349;28;20030;-78
2022/01/14 07:04:27;;;;;;;31.70;20.30;;;-0.40;99.90;;;;;;5035462;28;20033;-76
2022/01/14 07:06:52;;;;;;;34.00;20.52;;;-0.40;99.90;;;;;;5035301;28;20032;-78
2022/01/14 07:09:18;;;;;;;31.30;21.13;;;-0.40;99.90;;;;;;5036788;28;20197;-76
2022/01/14 07:11:47;;;;;;;30.60;21.30;;;-0.40;99.90;;;;;;5037240;28;20048;-77
2022/01/14 07:14:14;;;;;;;33.05;21.95;;;-0.50;99.90;;;;;;5010751;28;20500;-78
2022/01/14 07:16:39;;;;;;;29.60;20.67;;;-0.30;99.90;;;;;;5016349;28;20057;-77
2022/01/14 07:19:05;;;;;;;30.50;20.42;;;-0.20;99.90;;;;;;5016534;28;20022;-77
2022/01/14 07:21:34;;;;;;;35.65;22.23;;;-0.20;99.90;;;;;;5014642;28;20022;-77
2022/01/14 07:24:03;;;;;;;34.38;21.05;;;-0.20;99.90;;;;;;5016233;28;20474;-78
2022/01/14 07:26:28;;;;;;;33.30;22.33;;;-0.30;99.90;;;;;;5018465;28;20397;-77
2022/01/14 07:28:54;;;;;;;33.63;20.67;;;-0.50;99.90;;;;;;5019097;28;20128;-77
2022/01/14 07:31:23;;;;;;;31.73;20.80;;;-0.50;99.90;;;;;;5017661;28;20022;-78
2022/01/14 07:33:49;;;;;;;28.77;21.88;;;-0.50;99.90;;;;;;5006664;28;20033;-76
2022/01/14 07:36:14;;;;;;;42.10;22.33;;;-0.50;99.90;;;;;;5020183;28;20497;-77
2022/01/14 07:38:40;;;;;;;30.48;21.60;;;-0.50;99.90;;;;;;5020932;28;20026;-77
2022/01/14 07:41:06;;;;;;;34.63;21.52;;;-0.60;99.90;;;;;;5019176;28;20038;-78
2022/01/14 07:43:32;;;;;;;30.45;22.65;;;-0.60;99.90;;;;;;5015533;28;20096;-78
2022/01/14 07:45:58;;;;;;;29.42;19.23;;;-0.50;99.90;;;;;;5014622;28;20046;-76
2022/01/14 07:48:23;;;;;;;27.25;20.05;;;-0.50;99.90;;;;;;5015587;28;20022;-78
2022/01/14 07:50:49;;;;;;;31.75;21.35;;;-0.50;99.90;;;;;;5014206;28;20026;-77
2022/01/14 07:53:15;;;;;;;32.65;21.50;;;-0.50;99.90;;;;;;5014923;28;20022;-77
2022/01/14 07:55:41;;;;;;;33.50;22.35;;;-0.50;99.90;;;;;;5015715;28;20037;-78
2022/01/14 07:58:06;;;;;;;34.63;20.77;;;-0.30;99.90;;;;;;5015624;28;20085;-78
2022/01/14 08:00:35;;;;;;;39.03;23.55;;;-0.10;99.90;;;;;;5014544;28;20060;-78
2022/01/14 08:03:01;;;;;;;39.35;23.08;;;0.30;99.90;;;;;;5014806;28;20449;-77
2022/01/14 08:05:27;;;;;;;32.60;21.65;;;0.40;99.90;;;;;;5015928;28;20021;-78
2022/01/14 08:07:55;;;;;;;44.92;22.65;;;0.50;99.90;;;;;;5016309;28;20109;-78
2022/01/14 08:10:21;;;;;;;31.15;21.80;;;0.60;99.90;;;;;;5017782;28;20446;-78
2022/01/14 08:12:47;;;;;;;32.97;21.92;;;0.60;99.90;;;;;;5017923;28;20018;-77
2022/01/14 08:15:13;;;;;;;36.42;21.35;;;0.40;99.90;;;;;;5018629;28;20029;-77
2022/01/14 08:17:39;;;;;;;33.17;19.45;;;0.20;99.90;;;;;;5014302;28;20117;-77
2022/01/14 08:20:06;;;;;;;31.88;21.05;;;0.20;99.90;;;;;;5015312;28;20029;-76
2022/01/14 08:22:32;;;;;;;31.52;20.70;;;0.20;99.90;;;;;;5013913;28;20026;-77
2022/01/14 08:24:58;;;;;;;39.83;20.20;;;0.30;99.90;;;;;;5013612;28;20076;-76
2022/01/14 08:27:28;;;;;;;31.70;20.63;;;0.50;99.90;;;;;;5013497;28;20034;-76
2022/01/14 08:29:54;;;;;;;36.08;21.45;;;0.60;99.90;;;;;;5015573;28;20049;-77
2022/01/14 08:32:21;;;;;;;30.90;20.77;;;0.70;99.90;;;;;;5021733;28;20018;-76
2022/01/14 08:34:47;;;;;;;28.58;18.77;;;0.90;99.90;;;;;;5032054;28;20014;-77
2022/01/14 08:37:12;;;;;;;29.98;21.00;;;0.90;99.90;;;;;;5016392;28;20037;-76
2022/01/14 08:39:39;;;;;;;25.58;20.02;;;1.00;99.90;;;;;;5019647;28;20032;-77
2022/01/14 08:42:07;;;;;;;34.03;21.40;;;1.10;99.90;;;;;;5015055;28;20033;-77
2022/01/14 08:44:32;;;;;;;28.75;20.23;;;0.90;99.90;;;;;;5012310;28;20550;-78
2022/01/14 08:46:59;;;;;;;26.63;19.95;;;1.00;99.90;;;;;;5012880;28;20033;-77
2022/01/14 08:49:25;;;;;;;27.10;18.83;;;1.10;99.90;;;;;;5014616;28;20096;-77
2022/01/14 08:51:50;;;;;;;36.50;20.70;;;1.10;99.90;;;;;;5012760;28;20461;-78
2022/01/14 08:54:17;;;;;;;37.25;23.00;;;1.10;99.90;;;;;;5014120;28;20026;-77
2022/01/14 08:56:43;;;;;;;33.22;21.63;;;1.00;99.90;;;;;;5012548;28;20029;-77
2022/01/14 08:59:08;;;;;;;40.58;23.30;;;0.90;99.90;;;;;;5012361;28;20501;-77
2022/01/14 09:01:35;;;;;;;31.63;20.58;;;1.00;99.90;;;;;;5013478;28;20034;-78
2022/01/14 09:04:02;;;;;;;32.55;20.95;;;0.90;99.90;;;;;;5017487;28;20049;-77
2022/01/14 09:06:28;;;;;;;35.53;21.83;;;1.00;99.90;;;;;;5015832;28;20022;-77
2022/01/14 09:08:53;;;;;;;31.75;20.95;;;1.20;99.90;;;;;;5013158;28;20492;-77
2022/01/14 09:11:19;;;;;;;30.40;19.75;;;1.50;99.90;;;;;;5012365;28;20049;-77
2022/01/14 09:13:45;;;;;;;30.98;20.67;;;1.60;99.90;;;;;;5014273;28;20101;-77
2022/01/14 09:16:11;;;;;;;32.63;20.42;;;1.60;99.90;;;;;;5013078;28;20371;-77
2022/01/14 09:18:37;;;;;;;30.77;20.90;;;1.70;99.90;;;;;;5012353;28;20033;-77
2022/01/14 09:21:03;;;;;;;31.15;20.70;;;1.90;99.90;;;;;;5012767;28;20406;-77
2022/01/14 09:23:29;;;;;;;25.85;19.55;;;2.10;99.90;;;;;;5013258;28;20062;-77
2022/01/14 09:25:55;;;;;;;28.20;18.27;;;2.10;99.90;;;;;;5011437;28;20038;-78
2022/01/14 09:28:21;;;;;;;35.20;20.25;;;2.20;99.90;;;;;;5012522;28;20398;-77
2022/01/14 09:30:47;;;;;;;28.08;20.17;;;2.20;99.90;;;;;;5011602;28;20029;-76
2022/01/14 09:33:16;;;;;;;27.08;18.95;;;2.30;99.90;;;;;;5014685;28;20050;-78
2022/01/14 09:35:41;;;;;;;24.42;18.80;;;2.40;99.90;;;;;;5013434;28;20101;-77
2022/01/14 09:38:07;;;;;;;26.10;18.40;;;2.40;99.90;;;;;;5012137;28;20500;-78
2022/01/14 09:40:32;;;;;;;27.42;19.17;;;2.50;99.90;;;;;;5013694;28;20390;-78
2022/01/14 09:43:01;;;;;;;27.30;18.52;;;2.50;99.90;;;;;;5013249;28;20061;-77
2022/01/14 09:45:28;;;;;;;28.52;20.05;;;2.40;99.90;;;;;;5013137;28;20037;-76
2022/01/14 09:47:55;;;;;;;27.23;19.30;;;2.50;99.90;;;;;;5013787;28;20112;-77
2022/01/14 09:50:22;;;;;;;27.63;19.80;;;2.60;99.90;;;;;;5016511;28;20501;-77
2022/01/14 09:52:50;;;;;;;27.35;19.30;;;2.60;99.90;;;;;;5015648;28;20474;-76
2022/01/14 09:55:16;;;;;;;26.83;20.67;;;2.60;99.90;;;;;;5016343;28;20025;-78
2022/01/14 09:57:42;;;;;;;27.38;19.52;;;2.70;99.90;;;;;;5015784;28;20030;-77
2022/01/14 10:00:08;;;;;;;29.67;21.08;;;2.80;99.90;;;;;;5017376;28;20064;-77
2022/01/14 10:02:40;;;;;;;26.48;19.00;;;2.80;99.90;;;;;;5016679;28;20032;-76
2022/01/14 10:05:09;;;;;;;29.55;20.90;;;2.80;99.90;;;;;;5017344;28;20098;-77
2022/01/14 10:07:35;;;;;;;29.33;18.55;;;2.90;99.90;;;;;;5024912;28;20049;-77
2022/01/14 10:10:20;;;;;;;30.75;20.35;;;2.90;99.90;;;;;;5037654;28;20037;-77
2022/01/14 10:12:45;;;;;;;24.60;18.92;;;3.00;99.90;;;;;;5038392;28;20058;-77
2022/01/14 10:15:12;;;;;;;28.98;19.35;;;3.00;99.90;;;;;;5026919;28;20026;-77
2022/01/14 10:17:42;;;;;;;28.48;20.42;;;3.20;99.90;;;;;;5015697;28;20514;-77
2022/01/14 10:20:13;;;;;;;32.00;20.38;;;3.40;99.90;;;;;;5016175;28;20540;-77
2022/01/14 10:22:47;;;;;;;24.42;18.42;;;3.40;99.90;;;;;;5017931;28;20545;-77
2022/01/14 10:25:17;;;;;;;27.42;18.30;;;3.40;99.90;;;;;;5017102;28;20084;-77
2022/01/14 10:27:45;;;;;;;31.67;21.33;;;3.40;99.90;;;;;;5016080;28;20080;-77
2022/01/14 10:30:28;;;;;;;29.90;20.73;;;3.40;99.90;;;;;;5016617;28;20136;-76
2022/01/14 10:33:01;;;;;;;25.83;18.90;;;3.60;99.90;;;;;;5016134;28;20355;-77
2022/01/14 10:35:30;;;;;;;26.73;19.75;;;3.80;99.90;;;;;;5014678;28;20026;-76
2022/01/14 10:38:00;;;;;;;25.98;18.02;;;3.80;99.90;;;;;;5017668;28;20025;-77
2022/01/14 10:40:28;;;;;;;28.85;19.23;;;3.90;99.90;;;;;;5021844;28;20117;-77
2022/01/14 10:43:03;;;;;;;25.92;18.45;;;3.90;99.90;;;;;;5017660;28;20022;-77
2022/01/14 10:45:29;;;;;;;29.33;19.23;;;4.00;99.90;;;;;;5018010;28;20038;-76
2022/01/14 10:47:59;;;;;;;31.80;20.33;;;4.00;99.90;;;;;;5016565;28;20024;-76
2022/01/14 10:50:34;;;;;;;28.75;19.67;;;4.10;99.90;;;;;;5014871;28;20030;-77
2022/01/14 10:53:01;;;;;;;28.65;19.40;;;4.20;99.90;;;;;;5016932;28;20478;-78
2022/01/14 10:55:31;;;;;;;31.95;21.23;;;4.30;99.90;;;;;;5016523;28;20032;-77
2022/01/14 10:57:57;;;;;;;26.27;18.80;;;4.30;99.90;;;;;;5015451;28;20411;-77
2022/01/14 11:00:24;;;;;;;28.17;19.30;;;4.30;99.90;;;;;;5016492;28;20030;-77
2022/01/14 11:02:50;;;;;;;30.33;21.90;;;4.40;99.90;;;;;;5017018;28;20033;-77
2022/01/14 11:05:18;;;;;;;37.03;20.70;;;4.20;99.90;;;;;;5017823;28;20022;-78
2022/01/14 11:07:46;;;;;;;30.38;21.10;;;4.40;99.90;;;;;;5016938;28;20022;-78
2022/01/14 11:10:28;;;;;;;30.00;18.35;;;4.40;99.90;;;;;;5015473;28;20017;-77
2022/01/14 11:12:56;;;;;;;27.73;18.42;;;4.70;99.90;;;;;;5020485;28;20148;-77
2022/01/14 11:15:23;;;;;;;25.80;18.65;;;4.60;99.90;;;;;;5020536;28;20022;-77
2022/01/14 11:17:52;;;;;;;30.63;19.38;;;4.70;99.90;;;;;;5021279;28;20034;-77
2022/01/14 11:20:35;;;;;;;30.20;17.70;;;4.80;99.90;;;;;;5018521;28;20059;-78
2022/01/14 11:23:16;;;;;;;35.20;19.88;;;4.90;99.90;;;;;;5016261;28;20048;-77
2022/01/14 11:26:03;;;;;;;27.50;19.08;;;4.90;99.90;;;;;;5016223;28;20080;-78
2022/01/14 11:28:31;;;;;;;24.58;18.00;;;4.90;99.90;;;;;;5019636;28;20609;-78
2022/01/14 11:30:57;;;;;;;25.58;17.98;;;4.80;99.90;;;;;;5020750;28;20029;-77
2022/01/14 11:33:41;;;;;;;23.45;17.42;;;4.90;99.90;;;;;;5024284;28;20382;-77
2022/01/14 11:36:07;;;;;;;25.48;18.00;;;5.10;99.90;;;;;;5019128;28;20032;-77
2022/01/14 11:38:42;;;;;;;28.45;18.08;;;5.00;99.90;;;;;;5020336;28;20109;-77
2022/01/14 11:41:12;;;;;;;29.63;17.65;;;5.20;99.90;;;;;;5017075;28;20053;-77
2022/01/14 11:43:40;;;;;;;20.55;16.50;;;5.40;99.90;;;;;;5016877;28;20029;-77
2022/01/14 11:46:09;;;;;;;29.25;18.35;;;5.50;99.90;;;;;;5018860;28;20482;-77
2022/01/14 11:48:41;;;;;;;25.25;18.42;;;5.60;99.90;;;;;;5017390;28;20396;-78
2022/01/14 11:51:12;;;;;;;23.48;17.60;;;5.60;99.90;;;;;;5017096;28;20032;-77
2022/01/14 11:53:42;;;;;;;27.05;18.42;;;5.70;99.90;;;;;;5015090;28;20071;-77
2022/01/14 11:56:34;;;;;;;31.20;19.15;;;5.80;99.90;;;;;;5013222;28;20030;-78
2022/01/14 11:59:35;;;;;;;26.27;16.60;;;5.80;99.90;;;;;;5014790;28;20026;-77
2022/01/14 12:02:00;;;;;;;26.92;17.67;;;5.60;99.90;;;;;;5014721;28;20504;-77
2022/01/14 12:05:01;;;;;;;26.55;18.42;;;5.70;99.90;;;;;;5014401;28;20053;-77
2022/01/14 12:07:27;;;;;;;;;;;5.80;99.90;;;;;;5015781;28;20077;-78
2022/01/14 12:10:09;;;;;;;28.48;19.08;;;5.80;99.90;;;;;;5014268;28;19955;-77
2022/01/14 12:12:35;;;;;;;25.42;19.05;;;5.90;99.90;;;;;;5012716;28;20026;-78
2022/01/14 12:15:03;;;;;;;29.83;18.02;;;5.90;99.90;;;;;;5014071;28;20237;-77
2022/01/14 12:17:36;;;;;;;28.33;19.05;;;5.80;99.90;;;;;;5013103;28;20486;-77
2022/01/14 12:20:11;;;;;;;27.90;19.42;;;5.90;99.90;;;;;;5014610;28;20044;-78
2022/01/14 12:22:37;;;;;;;23.83;19.38;;;5.90;99.90;;;;;;5013030;28;20028;-77
2022/01/14 12:25:04;;;;;;;28.52;18.88;;;6.00;99.90;;;;;;5013789;28;20090;-78
2022/01/14 12:27:42;;;;;;;23.92;17.73;;;5.90;99.90;;;;;;5027547;28;20038;-76
2022/01/14 12:30:17;;;;;;;23.65;17.52;;;6.10;99.90;;;;;;5027402;28;20018;-76
2022/01/14 12:32:46;;;;;;;26.45;18.15;;;6.30;99.90;;;;;;5029843;28;20069;-77
2022/01/14 12:35:18;;;;;;;23.55;16.77;;;6.30;99.90;;;;;;5024974;28;20053;-77
2022/01/14 12:37:52;;;;;;;23.00;16.75;;;6.50;99.90;;;;;;5014490;28;20032;-77
2022/01/14 12:40:20;;;;;;;21.42;17.33;;;6.40;99.90;;;;;;5015404;28;20064;-77
2022/01/14 12:42:53;;;;;;;19.85;15.52;;;6.60;99.90;;;;;;5017010;28;20367;-76
2022/01/14 12:45:28;;;;;;;20.95;17.48;;;6.60;99.90;;;;;;5016437;28;20037;-77
2022/01/14 12:48:33;;;;;;;24.40;16.40;;;6.60;99.90;;;;;;5017519;28;20025;-78
2022/01/14 12:51:08;;;;;;;31.40;19.00;;;6.60;99.90;;;;;;5015625;28;20018;-77
2022/01/14 12:53:34;;;;;;;23.60;17.25;;;6.70;99.90;;;;;;5014617;28;20397;-76
2022/01/14 12:56:01;;;;;;;27.33;19.42;;;6.80;99.90;;;;;;5014546;28;20029;-77